Time;durP1;ratioP1;P1;durP2;ratioP2;P2;SDS_P1;SDS_P2;PMS_P1;PMS_P2;Temp;Humidity;BMP_temperature;BMP_pressure;BME280_temperature;BME280_humidity;BME280_pressure;Samples;Min_cycle;Max_cycle;Signal;HPM_P1;HPM_P2
2022/12/19 00:01:52;;;;;;;49.53;16.45;;;-1.20;99.90;;;;;;4992467;28;20102;-68
2022/12/19 00:04:19;;;;;;;44.70;16.67;;;-1.20;99.90;;;;;;4993180;28;20022;-68
2022/12/19 00:06:45;;;;;;;46.20;14.55;;;-1.30;99.90;;;;;;4992610;28;20030;-68
2022/12/19 00:09:12;;;;;;;42.38;15.25;;;-1.30;99.90;;;;;;4993683;28;20035;-68
2022/12/19 00:11:38;;;;;;;45.95;16.10;;;-1.30;99.90;;;;;;4995822;28;20046;-69
2022/12/19 00:14:05;;;;;;;49.65;16.90;;;-1.20;99.90;;;;;;4992583;28;20037;-68
2022/12/19 00:16:31;;;;;;;52.05;16.25;;;-1.20;99.90;;;;;;4993134;28;20052;-68
2022/12/19 00:18:58;;;;;;;54.45;17.92;;;-1.10;99.90;;;;;;4992832;28;20093;-69
2022/12/19 00:21:27;;;;;;;41.65;15.57;;;-1.10;99.90;;;;;;4993638;28;20026;-69
2022/12/19 00:23:53;;;;;;;56.35;15.82;;;-1.00;99.90;;;;;;4992795;28;20034;-68
2022/12/19 00:26:24;;;;;;;48.08;16.73;;;-0.80;99.90;;;;;;4993345;28;20029;-67
2022/12/19 00:28:53;;;;;;;53.90;16.57;;;-0.90;99.90;;;;;;4993712;28;20030;-67
2022/12/19 00:31:20;;;;;;;48.25;15.80;;;-1.00;99.90;;;;;;4993754;28;20109;-68
2022/12/19 00:33:47;;;;;;;50.72;16.92;;;-1.00;99.90;;;;;;4992280;28;20014;-68
2022/12/19 00:36:19;;;;;;;50.50;17.67;;;-0.90;99.90;;;;;;4993616;28;20109;-68
2022/12/19 00:38:45;;;;;;;40.97;15.55;;;-0.70;99.90;;;;;;4992352;28;20113;-68
2022/12/19 00:41:17;;;;;;;48.03;16.52;;;-0.70;99.90;;;;;;4992811;28;20046;-68
2022/12/19 00:43:44;;;;;;;44.22;16.77;;;-0.70;99.90;;;;;;4992190;28;20027;-68
2022/12/19 00:46:13;;;;;;;49.33;16.58;;;-0.60;99.90;;;;;;4993931;28;20034;-68
2022/12/19 00:48:39;;;;;;;43.55;15.73;;;-0.60;99.90;;;;;;4992384;28;20035;-68
2022/12/19 00:51:10;;;;;;;50.92;16.38;;;-0.50;99.90;;;;;;4992212;28;20030;-68
2022/12/19 00:53:36;;;;;;;50.38;17.42;;;-0.50;99.90;;;;;;4992159;28;20033;-68
2022/12/19 00:56:12;;;;;;;42.65;16.05;;;-0.50;99.90;;;;;;4992225;28;20034;-68
2022/12/19 00:58:37;;;;;;;55.53;17.38;;;-0.30;99.90;;;;;;4992419;28;20026;-68
2022/12/19 01:01:09;;;;;;;45.92;16.10;;;-0.40;99.90;;;;;;4992400;28;20027;-69
2022/12/19 01:03:35;;;;;;;;;;;-0.70;99.90;;;;;;4995933;28;20064;-69
2022/12/19 01:06:00;;;;;;;51.75;16.08;;;-0.80;99.90;;;;;;4996865;28;19961;-69
2022/12/19 01:08:26;;;;;;;47.05;15.80;;;-0.80;99.90;;;;;;4997293;28;20050;-67
2022/12/19 01:10:51;;;;;;;44.40;15.50;;;-0.70;99.90;;;;;;4997346;28;20023;-67
2022/12/19 01:13:19;;;;;;;56.95;17.55;;;-0.60;99.90;;;;;;4996843;28;20026;-68
2022/12/19 01:15:45;;;;;;;47.25;16.75;;;-0.60;99.90;;;;;;4996917;28;20041;-68
2022/12/19 01:18:11;;;;;;;48.42;15.60;;;-0.60;99.90;;;;;;4995851;28;20026;-68
2022/12/19 01:20:42;;;;;;;51.15;17.17;;;-0.90;99.90;;;;;;4996812;28;20035;-68
2022/12/19 01:23:08;;;;;;;38.17;15.73;;;-0.90;99.90;;;;;;4995561;28;20042;-68
2022/12/19 01:25:36;;;;;;;46.85;16.10;;;-0.90;99.90;;;;;;4995292;28;20030;-68
2022/12/19 01:28:01;;;;;;;53.72;16.83;;;-0.90;99.90;;;;;;4996526;28;20113;-68
2022/12/19 01:30:28;;;;;;;47.65;16.33;;;-1.00;99.90;;;;;;4995541;28;20110;-68
2022/12/19 01:32:55;;;;;;;51.72;16.42;;;-0.80;99.90;;;;;;4996558;28;20053;-68
2022/12/19 01:35:20;;;;;;;54.22;16.58;;;-1.00;99.90;;;;;;4995215;28;20030;-68
2022/12/19 01:37:46;;;;;;;46.95;16.35;;;-1.00;99.90;;;;;;4996704;28;20064;-68
2022/12/19 01:40:12;;;;;;;50.75;16.67;;;-1.10;99.90;;;;;;4995052;28;20072;-68
2022/12/19 01:42:38;;;;;;;48.13;16.63;;;-1.30;99.90;;;;;;4994878;28;20048;-68
2022/12/19 01:45:06;;;;;;;53.58;17.08;;;-1.20;99.90;;;;;;4995001;28;20470;-68
2022/12/19 01:47:53;;;;;;;56.60;17.15;;;-1.20;99.90;;;;;;4995119;28;20026;-68
2022/12/19 01:50:25;;;;;;;48.80;17.17;;;-1.10;99.90;;;;;;4996469;28;20035;-68
2022/12/19 01:52:52;;;;;;;49.67;17.65;;;-1.10;99.90;;;;;;4996114;28;20170;-68
2022/12/19 01:55:19;;;;;;;56.50;18.40;;;-1.20;99.90;;;;;;4994914;28;20041;-69
2022/12/19 01:57:45;;;;;;;50.50;16.52;;;-1.20;99.90;;;;;;4994759;28;20026;-69
2022/12/19 02:00:11;;;;;;;51.05;15.57;;;-1.20;99.90;;;;;;4995998;28;20030;-69
2022/12/19 02:02:44;;;;;;;44.47;16.42;;;-1.10;99.90;;;;;;4996499;28;20069;-69
2022/12/19 02:05:09;;;;;;;45.97;15.57;;;-0.80;99.90;;;;;;4995088;28;20026;-69
2022/12/19 02:07:37;;;;;;;49.13;17.35;;;-0.80;99.90;;;;;;4995859;28;20093;-69
2022/12/19 02:10:03;;;;;;;42.40;17.45;;;-0.70;99.90;;;;;;4995786;28;20029;-68
2022/12/19 02:12:33;;;;;;;48.95;17.67;;;-0.90;99.90;;;;;;4994331;28;20034;-68
2022/12/19 02:15:00;;;;;;;49.33;17.15;;;-1.00;99.90;;;;;;4994218;28;20026;-67
2022/12/19 02:17:51;;;;;;;42.25;16.10;;;-1.00;99.90;;;;;;4994348;28;20030;-68
2022/12/19 02:20:59;;;;;;;48.88;16.23;;;-1.10;99.90;;;;;;4994437;28;20033;-68
2022/12/19 02:23:31;;;;;;;49.65;15.65;;;-1.10;99.90;;;;;;4994508;28;20040;-68
2022/12/19 02:26:33;;;;;;;49.25;17.10;;;-1.20;99.90;;;;;;4996222;28;20034;-68
2022/12/19 02:29:39;;;;;;;48.08;14.93;;;-1.00;99.90;;;;;;4995647;28;20026;-68
2022/12/19 02:32:11;;;;;;;52.58;15.95;;;-1.00;99.90;;;;;;4994341;28;20023;-68
2022/12/19 02:34:57;;;;;;;49.95;16.35;;;-0.90;99.90;;;;;;4995919;28;20112;-68
2022/12/19 02:37:28;;;;;;;47.35;16.55;;;-1.00;99.90;;;;;;4995054;28;20026;-68
2022/12/19 02:40:09;;;;;;;53.60;18.98;;;-1.10;99.90;;;;;;4995732;28;20053;-68
2022/12/19 02:42:39;;;;;;;52.33;17.58;;;-1.10;99.90;;;;;;4994918;28;20414;-68
2022/12/19 02:45:08;;;;;;;53.75;17.35;;;-1.00;99.90;;;;;;4994270;28;20125;-68
2022/12/19 02:47:35;;;;;;;44.95;16.85;;;-0.90;99.90;;;;;;4995308;28;20023;-68
2022/12/19 02:50:01;;;;;;;51.15;17.33;;;-0.90;99.90;;;;;;4995616;28;20030;-67
2022/12/19 02:52:27;;;;;;;58.30;17.88;;;-1.00;99.90;;;;;;4995426;28;20053;-68
2022/12/19 02:54:59;;;;;;;50.20;17.95;;;-0.90;99.90;;;;;;4995136;28;20077;-68
2022/12/19 02:57:44;;;;;;;50.72;18.40;;;-0.90;99.90;;;;;;4994800;28;20029;-68
2022/12/19 03:00:16;;;;;;;48.67;17.45;;;-0.80;99.90;;;;;;4994139;28;20023;-68
2022/12/19 03:02:45;;;;;;;;;;;-0.60;99.90;;;;;;4996135;28;20022;-68
2022/12/19 03:05:16;;;;;;;46.25;15.93;;;-0.70;99.90;;;;;;4995151;28;19905;-68
2022/12/19 03:07:48;;;;;;;50.63;16.90;;;-0.70;99.90;;;;;;4995009;28;20034;-68
2022/12/19 03:10:31;;;;;;;44.25;16.10;;;-0.70;99.90;;;;;;4995120;28;20253;-68
2022/12/19 03:13:06;;;;;;;47.42;18.00;;;-0.70;99.90;;;;;;4995017;28;20026;-68
2022/12/19 03:15:33;;;;;;;54.60;16.75;;;-0.40;99.90;;;;;;4994388;28;20030;-68
2022/12/19 03:18:00;;;;;;;50.55;18.00;;;-0.40;99.90;;;;;;4995222;28;20120;-68
2022/12/19 03:20:48;;;;;;;46.92;16.77;;;-0.50;99.90;;;;;;4994302;28;20022;-67
2022/12/19 03:23:14;;;;;;;47.00;17.55;;;-0.60;99.90;;;;;;4993757;28;20047;-68
2022/12/19 03:25:44;;;;;;;54.78;19.00;;;-0.40;99.90;;;;;;4992926;28;20030;-68
2022/12/19 03:28:22;;;;;;;54.38;17.35;;;-0.70;99.90;;;;;;4995076;28;20022;-68
2022/12/19 03:30:48;;;;;;;44.42;16.15;;;-0.90;99.90;;;;;;4993863;28;20561;-68
2022/12/19 03:33:17;;;;;;;57.25;17.98;;;-0.90;99.90;;;;;;4993237;28;20109;-68
2022/12/19 03:35:45;;;;;;;47.53;16.63;;;-0.80;99.90;;;;;;4993435;28;20054;-68
2022/12/19 03:38:13;;;;;;;50.63;18.27;;;-0.80;99.90;;;;;;4994284;28;20034;-68
2022/12/19 03:40:42;;;;;;;43.95;16.83;;;-0.70;99.90;;;;;;4994193;28;20061;-68
2022/12/19 03:43:11;;;;;;;47.63;16.67;;;-0.60;99.90;;;;;;4994180;28;20034;-68
2022/12/19 03:45:56;;;;;;;48.65;17.13;;;-0.50;99.90;;;;;;4993194;28;20089;-68
2022/12/19 03:48:38;;;;;;;50.42;16.80;;;-0.70;99.90;;;;;;4992966;28;20027;-68
2022/12/19 03:51:18;;;;;;;50.05;16.73;;;-0.80;99.90;;;;;;4992991;28;20029;-68
2022/12/19 03:53:47;;;;;;;46.05;17.00;;;-0.80;99.90;;;;;;4993536;28;20022;-68
2022/12/19 03:56:20;;;;;;;44.67;16.13;;;-0.70;99.90;;;;;;4994149;28;20030;-68
2022/12/19 03:58:51;;;;;;;51.72;17.48;;;-0.70;99.90;;;;;;4994041;28;20390;-68
2022/12/19 04:01:18;;;;;;;42.37;14.87;;;-0.60;99.90;;;;;;4993614;28;20054;-68
2022/12/19 04:03:43;;;;;;;48.15;16.48;;;-0.30;99.90;;;;;;4992957;28;20031;-68
2022/12/19 04:06:11;;;;;;;44.28;15.57;;;-0.40;99.90;;;;;;4993950;28;20087;-68
2022/12/19 04:08:37;;;;;;;43.55;17.13;;;-0.40;99.90;;;;;;4992489;28;20022;-68
2022/12/19 04:11:08;;;;;;;50.97;16.88;;;-0.50;99.90;;;;;;4992647;28;20045;-68
2022/12/19 04:13:39;;;;;;;47.38;16.63;;;-0.50;99.90;;;;;;4993820;28;20030;-68
2022/12/19 04:16:21;;;;;;;46.88;16.13;;;-0.40;99.90;;;;;;4993356;28;20026;-68
2022/12/19 04:18:53;;;;;;;47.60;15.73;;;-0.30;99.90;;;;;;4993968;28;20110;-68
2022/12/19 04:21:26;;;;;;;46.85;16.13;;;-0.30;99.90;;;;;;4993393;28;20037;-68
2022/12/19 04:23:59;;;;;;;50.45;16.90;;;-0.30;99.90;;;;;;4995475;28;20061;-68
2022/12/19 04:26:26;;;;;;;54.08;17.42;;;-0.40;99.90;;;;;;4993294;28;20026;-68
2022/12/19 04:28:58;;;;;;;47.65;18.17;;;-0.30;99.90;;;;;;4993734;28;20022;-68
2022/12/19 04:31:24;;;;;;;44.92;16.75;;;-0.60;99.90;;;;;;4993874;28;20030;-68
2022/12/19 04:33:49;;;;;;;45.75;18.02;;;-0.50;99.90;;;;;;4992363;28;20022;-68
2022/12/19 04:36:15;;;;;;;47.22;18.25;;;-0.40;99.90;;;;;;4994387;28;20057;-68
2022/12/19 04:38:41;;;;;;;45.05;16.67;;;-0.20;99.90;;;;;;4996458;28;20028;-68
2022/12/19 04:41:07;;;;;;;43.88;16.30;;;-0.20;99.90;;;;;;4996787;28;20027;-68
2022/12/19 04:43:32;;;;;;;46.70;16.85;;;0.00;99.90;;;;;;4996676;28;20052;-68
2022/12/19 04:45:58;;;;;;;51.50;17.17;;;-0.10;99.90;;;;;;4997774;28;20065;-68
2022/12/19 04:48:24;;;;;;;54.05;17.67;;;-0.20;99.90;;;;;;4997497;28;20030;-68
2022/12/19 04:50:49;;;;;;;58.72;18.42;;;-0.30;99.90;;;;;;4996360;28;20118;-68
2022/12/19 04:53:15;;;;;;;52.53;17.20;;;-0.30;99.90;;;;;;4997636;28;20026;-68
2022/12/19 04:55:41;;;;;;;45.67;17.92;;;-0.50;99.90;;;;;;4997549;28;20029;-68
2022/12/19 04:58:06;;;;;;;49.58;16.73;;;-0.50;99.90;;;;;;4997483;28;20018;-68
2022/12/19 05:00:32;;;;;;;53.45;18.15;;;-0.50;99.90;;;;;;4997479;28;20042;-68
2022/12/19 05:02:58;;;;;;;48.58;16.40;;;-0.50;99.90;;;;;;4996307;28;20033;-68
2022/12/19 05:05:23;;;;;;;54.53;17.83;;;-0.30;99.90;;;;;;4997250;28;20019;-68
2022/12/19 05:07:50;;;;;;;52.50;18.17;;;-0.30;99.90;;;;;;4996374;28;20030;-69
2022/12/19 05:10:15;;;;;;;53.15;17.52;;;-0.30;99.90;;;;;;4997179;28;20042;-69
2022/12/19 05:12:41;;;;;;;47.25;16.40;;;-0.30;99.90;;;;;;4997109;28;20131;-68
2022/12/19 05:15:07;;;;;;;57.72;18.92;;;-0.20;99.90;;;;;;4997242;28;20018;-68
2022/12/19 05:17:33;;;;;;;54.08;17.08;;;-0.20;99.90;;;;;;4997090;28;20022;-68
2022/12/19 05:19:58;;;;;;;50.30;18.02;;;-0.10;99.90;;;;;;4996656;28;20126;-68
2022/12/19 05:22:25;;;;;;;51.22;18.48;;;-0.20;99.90;;;;;;4997082;28;20074;-68
2022/12/19 05:24:51;;;;;;;49.25;16.63;;;-0.10;99.90;;;;;;4995907;28;20030;-68
2022/12/19 05:27:16;;;;;;;51.92;17.13;;;-0.20;99.90;;;;;;4996038;28;20028;-67
2022/12/19 05:29:42;;;;;;;50.55;16.90;;;-0.30;99.90;;;;;;4996378;28;20034;-67
2022/12/19 05:32:07;;;;;;;50.08;16.52;;;-0.30;99.90;;;;;;4995251;28;20030;-68
2022/12/19 05:34:33;;;;;;;49.60;16.77;;;-0.20;99.90;;;;;;4995379;28;20026;-68
2022/12/19 05:36:59;;;;;;;54.42;18.10;;;-0.10;99.90;;;;;;4995182;28;20026;-68
2022/12/19 05:39:24;;;;;;;48.80;16.88;;;-0.10;99.90;;;;;;4995223;28;20022;-68
2022/12/19 05:41:50;;;;;;;50.38;17.08;;;-0.20;99.90;;;;;;4996395;28;20045;-68
2022/12/19 05:44:15;;;;;;;49.35;17.35;;;0.00;99.90;;;;;;4996598;28;20088;-68
2022/12/19 05:46:41;;;;;;;53.00;18.10;;;0.00;99.90;;;;;;4995328;28;20026;-68
2022/12/19 05:49:06;;;;;;;54.90;18.40;;;-0.30;99.90;;;;;;4995093;28;20382;-68
2022/12/19 05:51:32;;;;;;;59.42;18.27;;;-0.30;99.90;;;;;;4994984;28;20045;-68
2022/12/19 05:53:59;;;;;;;51.15;17.77;;;-0.20;99.90;;;;;;4996205;28;20026;-68
2022/12/19 05:56:25;;;;;;;49.30;17.70;;;-0.10;99.90;;;;;;4995691;28;20026;-68
2022/12/19 05:58:50;;;;;;;53.70;19.63;;;-0.10;99.90;;;;;;4996021;28;20022;-68
2022/12/19 06:01:18;;;;;;;53.80;18.00;;;-0.30;99.90;;;;;;4995153;28;20026;-68
2022/12/19 06:03:45;;;;;;;53.90;19.30;;;-0.20;99.90;;;;;;4995121;28;20386;-69
2022/12/19 06:06:13;;;;;;;50.20;17.65;;;-0.20;99.90;;;;;;4996219;28;20034;-69
2022/12/19 06:08:40;;;;;;;52.88;17.13;;;-0.20;99.90;;;;;;4995987;28;20490;-68
2022/12/19 06:11:07;;;;;;;45.90;16.83;;;0.00;99.90;;;;;;4994695;28;20027;-68
2022/12/19 06:13:33;;;;;;;47.80;17.45;;;0.00;99.90;;;;;;4994586;28;20031;-68
2022/12/19 06:16:20;;;;;;;53.75;18.88;;;0.10;99.90;;;;;;4994714;28;20042;-69
2022/12/19 06:18:46;;;;;;;46.65;16.15;;;0.10;99.90;;;;;;4996139;28;20061;-69
2022/12/19 06:21:17;;;;;;;55.30;18.08;;;0.10;99.90;;;;;;4995198;28;20030;-69
2022/12/19 06:23:43;;;;;;;47.33;16.77;;;0.20;99.90;;;;;;5017859;23;20038;-69
2022/12/19 06:26:10;;;;;;;60.05;18.98;;;0.10;99.90;;;;;;4994638;28;20034;-70
2022/12/19 06:28:36;;;;;;;45.88;17.95;;;0.00;99.90;;;;;;4995664;28;20033;-70
2022/12/19 06:31:04;;;;;;;54.45;18.40;;;0.10;99.90;;;;;;4995498;28;20026;-70
2022/12/19 06:33:31;;;;;;;50.50;17.80;;;0.00;99.90;;;;;;4995895;28;20030;-70
2022/12/19 06:36:03;;;;;;;54.03;18.88;;;-0.10;99.90;;;;;;4994283;28;20548;-69
2022/12/19 06:38:29;;;;;;;56.78;18.73;;;0.00;99.90;;;;;;4995546;28;20026;-70
2022/12/19 06:43:39;;;;;;;52.95;19.67;;;0.20;99.90;;;;;;4995393;28;20057;-70
2022/12/19 06:46:05;;;;;;;56.38;17.70;;;0.10;99.90;;;;;;4994087;28;20030;-70
2022/12/19 06:48:30;;;;;;;62.03;18.95;;;0.10;99.90;;;;;;4995425;28;20088;-70
2022/12/19 06:50:56;;;;;;;60.63;19.85;;;0.10;99.90;;;;;;4994378;28;20018;-69
2022/12/19 06:53:22;;;;;;;56.05;18.48;;;0.20;99.90;;;;;;4994381;28;20470;-70
2022/12/19 06:55:50;;;;;;;45.70;16.60;;;0.30;99.90;;;;;;4994015;28;20050;-70
2022/12/19 06:58:16;;;;;;;49.25;17.60;;;0.40;99.90;;;;;;4993986;28;20022;-70
2022/12/19 07:00:41;;;;;;;55.15;18.38;;;0.20;99.90;;;;;;4994386;28;20054;-70
2022/12/19 07:03:12;;;;;;;62.65;17.92;;;0.20;99.90;;;;;;4993803;28;20022;-70
2022/12/19 07:05:38;;;;;;;53.30;17.75;;;0.20;99.90;;;;;;4993790;28;20171;-69
2022/12/19 07:08:04;;;;;;;50.00;16.60;;;0.10;99.90;;;;;;4995165;28;20033;-69
2022/12/19 07:10:30;;;;;;;57.33;18.27;;;0.10;99.90;;;;;;4994231;28;20109;-70
2022/12/19 07:12:55;;;;;;;52.65;18.73;;;0.30;99.90;;;;;;4994130;28;20106;-70
2022/12/19 07:15:21;;;;;;;59.80;18.73;;;0.30;99.90;;;;;;4993967;28;20084;-70
2022/12/19 07:17:46;;;;;;;53.85;17.67;;;0.20;99.90;;;;;;4994242;28;20117;-70
2022/12/19 07:20:13;;;;;;;53.38;19.23;;;0.30;99.90;;;;;;4993731;28;20116;-70
2022/12/19 07:22:39;;;;;;;54.72;17.40;;;0.40;99.90;;;;;;4994544;28;20045;-70
2022/12/19 07:25:06;;;;;;;48.40;17.15;;;0.50;99.90;;;;;;4993475;28;20041;-70
2022/12/19 07:27:32;;;;;;;52.15;17.58;;;0.40;99.90;;;;;;4994716;28;20038;-70
2022/12/19 07:29:57;;;;;;;49.20;17.98;;;0.40;99.90;;;;;;4994005;28;20072;-70
2022/12/19 07:32:23;;;;;;;57.00;19.65;;;0.40;99.90;;;;;;4993210;28;20014;-70
2022/12/19 07:34:48;;;;;;;55.35;19.30;;;0.50;99.90;;;;;;4993428;28;20069;-70
2022/12/19 07:37:14;;;;;;;55.90;19.13;;;0.50;99.90;;;;;;4993236;28;20034;-70
2022/12/19 07:39:40;;;;;;;61.78;20.23;;;0.50;99.90;;;;;;4993161;28;20026;-69
2022/12/19 07:42:05;;;;;;;55.08;19.70;;;0.50;99.90;;;;;;4994198;28;20109;-69
2022/12/19 07:44:31;;;;;;;58.17;19.17;;;0.30;99.90;;;;;;4992996;28;20022;-69
2022/12/19 07:46:56;;;;;;;56.20;19.75;;;0.50;99.90;;;;;;4992922;28;20096;-69
2022/12/19 07:49:22;;;;;;;55.00;19.90;;;0.40;99.90;;;;;;4994097;28;20026;-70
2022/12/19 07:51:47;;;;;;;54.30;18.80;;;0.40;99.90;;;;;;4994427;28;20023;-70
2022/12/19 07:54:13;;;;;;;53.92;19.05;;;0.40;99.90;;;;;;4992758;28;20130;-70
2022/12/19 07:56:39;;;;;;;57.17;19.67;;;0.40;99.90;;;;;;4992869;28;20027;-70
2022/12/19 07:59:04;;;;;;;66.75;22.52;;;0.50;99.90;;;;;;4993942;28;20048;-70
2022/12/19 08:01:30;;;;;;;55.55;19.27;;;0.40;99.90;;;;;;4993034;28;20022;-70
2022/12/19 08:03:55;;;;;;;54.80;17.35;;;0.40;99.90;;;;;;4992485;28;20030;-70
2022/12/19 08:06:22;;;;;;;56.40;19.13;;;0.40;99.90;;;;;;4994212;28;20037;-70
2022/12/19 08:08:47;;;;;;;53.70;20.92;;;0.40;99.90;;;;;;4994118;28;20023;-70
2022/12/19 08:11:16;;;;;;;55.60;19.95;;;0.40;99.90;;;;;;4992567;28;20036;-70
2022/12/19 08:13:42;;;;;;;53.72;20.05;;;0.30;99.90;;;;;;4992468;28;20058;-70
2022/12/19 08:16:08;;;;;;;56.30;19.23;;;0.30;99.90;;;;;;4992486;28;20100;-70
2022/12/19 08:18:33;;;;;;;56.53;17.52;;;0.50;99.90;;;;;;4993673;28;20473;-70
2022/12/19 08:20:59;;;;;;;55.28;19.85;;;0.50;99.90;;;;;;4992422;28;20026;-69
2022/12/19 08:23:25;;;;;;;58.78;20.10;;;0.30;99.90;;;;;;4992643;28;20039;-70
2022/12/19 08:26:02;;;;;;;59.92;21.38;;;0.30;99.90;;;;;;4993999;28;20113;-69
2022/12/19 08:28:56;;;;;;;65.05;21.13;;;0.40;99.90;;;;;;4992506;28;20029;-70
2022/12/19 08:31:23;;;;;;;60.30;20.70;;;0.40;99.90;;;;;;4992596;28;20014;-70
2022/12/19 08:33:50;;;;;;;57.78;20.73;;;0.50;99.90;;;;;;4993736;28;20037;-70
2022/12/19 08:36:19;;;;;;;61.58;19.73;;;0.40;99.90;;;;;;4993707;28;20026;-70
2022/12/19 08:38:46;;;;;;;61.75;20.33;;;0.40;99.90;;;;;;4992674;28;20052;-70
2022/12/19 08:41:13;;;;;;;59.83;20.08;;;0.50;99.90;;;;;;4992167;28;20122;-70
2022/12/19 08:43:39;;;;;;;58.35;19.15;;;0.50;99.90;;;;;;4992205;28;20026;-69
2022/12/19 08:46:05;;;;;;;57.72;20.30;;;0.40;99.90;;;;;;4993002;28;20028;-70
2022/12/19 08:48:31;;;;;;;65.10;21.00;;;0.60;99.90;;;;;;4992591;28;20034;-70
2022/12/19 08:50:59;;;;;;;57.17;19.42;;;0.50;99.90;;;;;;4993599;28;20035;-70
2022/12/19 08:53:27;;;;;;;53.28;19.92;;;0.70;99.90;;;;;;4992539;28;20022;-70
2022/12/19 08:55:55;;;;;;;62.53;20.98;;;0.70;99.90;;;;;;4992955;28;20038;-70
2022/12/19 08:58:21;;;;;;;59.30;19.92;;;0.70;99.90;;;;;;4992395;28;20053;-70
2022/12/19 09:00:46;;;;;;;55.22;19.23;;;0.60;99.90;;;;;;4992733;28;20022;-70
2022/12/19 09:03:12;;;;;;;56.95;19.58;;;0.80;99.90;;;;;;4992295;28;20444;-70
2022/12/19 09:05:38;;;;;;;57.58;20.45;;;0.90;99.90;;;;;;4992111;28;20015;-70
2022/12/19 09:08:03;;;;;;;55.42;20.25;;;0.90;99.90;;;;;;4992102;28;20108;-70
2022/12/19 09:10:30;;;;;;;53.63;20.00;;;1.00;99.90;;;;;;4992980;28;20033;-70
2022/12/19 09:12:56;;;;;;;61.72;19.85;;;1.10;99.90;;;;;;4992352;28;20058;-70
2022/12/19 09:15:22;;;;;;;54.10;19.35;;;1.20;99.90;;;;;;4992095;28;20044;-71
2022/12/19 09:17:47;;;;;;;54.20;18.45;;;1.10;99.90;;;;;;4992489;28;20541;-72
2022/12/19 09:20:13;;;;;;;53.63;19.23;;;1.20;99.90;;;;;;4992272;28;20025;-71
2022/12/19 09:22:38;;;;;;;56.35;19.00;;;1.00;99.90;;;;;;4992524;28;20121;-71
2022/12/19 09:25:05;;;;;;;55.17;18.63;;;1.10;99.90;;;;;;4996453;28;20200;-70
2022/12/19 09:27:31;;;;;;;54.42;18.63;;;1.10;99.90;;;;;;4995390;28;20117;-69
2022/12/19 09:29:56;;;;;;;54.08;18.13;;;1.20;99.90;;;;;;4995514;28;20023;-69
2022/12/19 09:32:22;;;;;;;58.08;19.13;;;1.10;99.90;;;;;;4995862;28;20023;-71
2022/12/19 09:34:47;;;;;;;61.40;19.48;;;0.90;99.90;;;;;;4996362;28;20073;-70
2022/12/19 09:37:14;;;;;;;61.40;21.08;;;0.80;99.90;;;;;;4996555;28;20118;-70
2022/12/19 09:39:40;;;;;;;46.35;19.33;;;0.80;99.90;;;;;;4995951;28;20493;-70
2022/12/19 09:42:20;;;;;;;52.22;18.27;;;0.80;99.90;;;;;;4998124;28;20088;-71
2022/12/19 09:45:14;;;;;;;55.13;20.90;;;1.00;99.90;;;;;;4995333;28;20076;-70
2022/12/19 09:47:43;;;;;;;60.17;19.38;;;0.90;99.90;;;;;;4996003;28;20066;-70
2022/12/19 09:50:46;;;;;;;55.13;19.02;;;0.80;99.90;;;;;;4995112;28;20023;-70
2022/12/19 09:53:24;;;;;;;59.60;19.95;;;0.90;99.90;;;;;;4995283;28;20046;-71
2022/12/19 09:55:52;;;;;;;58.40;20.88;;;1.00;99.90;;;;;;4996061;28;20037;-71
2022/12/19 09:58:41;;;;;;;56.65;20.52;;;1.10;99.90;;;;;;4994963;28;20027;-70
2022/12/19 10:01:18;;;;;;;59.50;20.30;;;1.10;99.90;;;;;;4983315;28;20030;-70
2022/12/19 10:03:57;;;;;;;56.30;18.20;;;1.20;99.90;;;;;;4994751;28;20023;-70
2022/12/19 10:06:23;;;;;;;57.42;18.90;;;1.30;99.90;;;;;;4994756;28;20054;-70
2022/12/19 10:08:50;;;;;;;57.63;19.27;;;1.20;99.90;;;;;;4996249;28;20053;-70
2022/12/19 10:11:36;;;;;;;51.95;20.38;;;1.10;99.90;;;;;;4994661;28;20030;-70
2022/12/19 10:14:32;;;;;;;49.25;16.80;;;1.20;99.90;;;;;;4995939;28;20105;-71
2022/12/19 10:17:14;;;;;;;53.65;18.38;;;1.30;99.90;;;;;;4995805;28;20029;-70
2022/12/19 10:20:08;;;;;;;55.53;19.15;;;1.50;99.90;;;;;;4996094;28;20130;-70
2022/12/19 10:23:06;;;;;;;50.40;17.50;;;1.50;99.90;;;;;;4995244;28;20034;-71
2022/12/19 10:26:05;;;;;;;50.30;17.30;;;1.60;99.90;;;;;;4995603;28;20030;-71
2022/12/19 10:29:09;;;;;;;59.15;18.77;;;1.50;99.90;;;;;;4994409;28;20031;-70
2022/12/19 10:31:53;;;;;;;55.10;18.60;;;1.40;99.90;;;;;;4994733;28;20030;-70
2022/12/19 10:34:23;;;;;;;56.10;19.48;;;1.40;99.90;;;;;;4993208;28;20026;-70
2022/12/19 10:37:28;;;;;;;58.47;18.88;;;1.50;99.90;;;;;;4995270;28;20033;-70
2022/12/19 10:40:29;;;;;;;54.88;19.85;;;1.40;99.90;;;;;;4992603;28;20490;-70
2022/12/19 10:43:17;;;;;;;63.03;22.25;;;1.50;99.90;;;;;;4994029;28;20599;-70
2022/12/19 10:45:57;;;;;;;59.25;19.40;;;1.40;99.90;;;;;;4994761;28;20033;-70
2022/12/19 10:48:23;;;;;;;56.15;19.50;;;1.50;99.90;;;;;;4994294;28;20038;-70
2022/12/19 10:50:49;;;;;;;63.53;19.83;;;1.50;99.90;;;;;;4993927;28;20034;-70
2022/12/19 10:53:15;;;;;;;52.72;19.25;;;1.50;99.90;;;;;;4993781;28;20037;-71
2022/12/19 10:55:48;;;;;;;60.08;20.35;;;1.60;99.90;;;;;;4995328;28;20018;-70
2022/12/19 10:58:22;;;;;;;53.85;19.85;;;1.40;99.90;;;;;;4993858;28;20022;-70
2022/12/19 11:01:11;;;;;;;58.92;20.83;;;1.40;99.90;;;;;;4994349;28;20023;-70
2022/12/19 11:03:38;;;;;;;57.35;18.70;;;1.50;99.90;;;;;;4993994;28;20027;-70
2022/12/19 11:06:05;;;;;;;78.00;23.65;;;1.60;99.90;;;;;;4993633;28;20049;-70
2022/12/19 11:08:35;;;;;;;60.20;20.48;;;1.60;99.90;;;;;;4994418;28;20022;-70
2022/12/19 11:11:03;;;;;;;53.95;18.83;;;1.80;99.90;;;;;;4993975;28;20030;-71
2022/12/19 11:13:45;;;;;;;55.90;19.50;;;1.70;99.90;;;;;;4994714;28;20030;-70
2022/12/19 11:16:12;;;;;;;60.75;20.63;;;1.60;99.90;;;;;;4993484;28;20030;-70
2022/12/19 11:18:46;;;;;;;57.17;21.52;;;1.80;99.90;;;;;;4993811;28;20442;-70
2022/12/19 11:21:26;;;;;;;56.60;19.90;;;1.90;99.90;;;;;;4993301;28;20033;-70
2022/12/19 11:23:54;;;;;;;63.00;20.45;;;1.90;99.90;;;;;;4994596;28;20038;-71
2022/12/19 11:26:32;;;;;;;62.72;19.50;;;1.90;99.90;;;;;;4994739;28;20061;-70
2022/12/19 11:29:04;;;;;;;65.95;21.17;;;2.00;99.90;;;;;;4993234;28;20025;-70
2022/12/19 11:31:30;;;;;;;52.97;19.30;;;2.00;99.90;;;;;;4993472;28;20029;-70
2022/12/19 11:34:12;;;;;;;56.35;20.00;;;1.90;99.90;;;;;;4993135;28;20169;-71
2022/12/19 11:36:48;;;;;;;52.90;19.48;;;1.90;99.90;;;;;;4995066;28;20034;-71
2022/12/19 11:39:45;;;;;;;49.97;18.80;;;1.90;99.90;;;;;;4993957;28;20022;-71
2022/12/19 11:42:23;;;;;;;57.58;19.55;;;1.90;99.90;;;;;;4982466;28;20042;-72
2022/12/19 11:45:14;;;;;;;48.72;18.33;;;1.90;99.90;;;;;;4994450;28;20026;-71
2022/12/19 11:47:51;;;;;;;51.57;17.23;;;1.80;99.90;;;;;;4993263;28;20034;-71
2022/12/19 11:50:28;;;;;;;48.25;18.25;;;1.90;99.90;;;;;;4993791;28;20033;-72
2022/12/19 11:53:16;;;;;;;56.47;18.98;;;2.00;99.90;;;;;;4994598;28;20022;-71
2022/12/19 11:56:05;;;;;;;46.83;17.60;;;2.00;99.90;;;;;;4994007;28;20027;-71
2022/12/19 11:58:31;;;;;;;50.15;17.27;;;2.00;99.90;;;;;;4994045;28;20022;-71
2022/12/19 12:00:59;;;;;;;55.85;17.42;;;2.10;99.90;;;;;;4992856;28;20041;-71
2022/12/19 12:03:51;;;;;;;48.78;17.90;;;2.00;99.90;;;;;;4993912;28;20022;-72
2022/12/19 12:06:17;;;;;;;52.20;17.63;;;2.10;99.90;;;;;;4966243;28;20529;-71
2022/12/19 12:09:02;;;;;;;50.35;18.33;;;2.00;99.90;;;;;;4993895;28;20264;-71
2022/12/19 12:11:51;;;;;;;64.43;19.83;;;2.00;99.90;;;;;;4994238;28;20026;-72
2022/12/19 12:14:31;;;;;;;52.08;17.23;;;2.00;99.90;;;;;;4993740;28;20045;-72
2022/12/19 12:17:09;;;;;;;54.80;19.27;;;2.10;99.90;;;;;;4992617;28;20034;-71
2022/12/19 12:19:49;;;;;;;49.83;17.63;;;2.10;99.90;;;;;;4992705;28;20034;-71
2022/12/19 12:22:30;;;;;;;50.97;18.25;;;2.00;99.90;;;;;;4994119;28;20034;-71
2022/12/19 12:25:33;;;;;;;58.13;18.13;;;1.90;99.90;;;;;;4994265;28;20125;-71
2022/12/19 12:28:12;;;;;;;56.30;17.70;;;1.90;99.90;;;;;;4993575;28;20022;-72
2022/12/19 12:31:29;;;;;;;52.95;17.85;;;1.90;99.90;;;;;;4993950;28;20058;-72
2022/12/19 12:34:20;;;;;;;48.10;17.65;;;1.90;99.90;;;;;;4914289;28;20126;-72
2022/12/19 12:36:59;;;;;;;54.35;18.45;;;1.90;99.90;;;;;;4993501;28;20164;-72
2022/12/19 12:39:35;;;;;;;57.65;19.98;;;2.00;99.90;;;;;;4992536;28;20104;-72
2022/12/19 12:42:23;;;;;;;54.30;18.88;;;1.90;99.90;;;;;;4993403;28;20077;-72
2022/12/19 12:44:54;;;;;;;55.83;19.55;;;2.00;99.90;;;;;;4993037;28;20030;-72
2022/12/19 12:47:25;;;;;;;55.85;18.70;;;1.90;99.90;;;;;;4993434;28;20037;-72
2022/12/19 12:49:58;;;;;;;52.25;18.75;;;2.00;99.90;;;;;;4993424;28;20037;-72
2022/12/19 12:52:36;;;;;;;56.70;18.88;;;2.10;99.90;;;;;;4992197;28;20033;-72
2022/12/19 12:55:05;;;;;;;53.22;20.05;;;2.10;99.90;;;;;;4992216;28;20022;-72
2022/12/19 12:57:36;;;;;;;55.95;20.27;;;2.00;99.90;;;;;;4992477;28;20023;-72